NFNA

Details ICAO NFNA (SUV)
Name Nausori Intl
Region Fiji and Tonga
Timezone Pacific/Fiji (UTC+12.0)
Plans Departing 44
Arriving 39
Stats Elevation 17 ft / 5 m (AMSL)
Location -18.043328° 178.559247°
Runways 1
Magnetic Variation 12.546° E
Sunrise 2018-05-20 18:27:20 UTC / 2018-05-21 06:27:20 Local
Sunset 2018-05-21 05:40:10 UTC / 2018-05-21 17:40:10 Local
Advertisement - Login to hide

Runways

ID Width Length Bearing (true) Bearing (mag) Surface Threshold Offset Overrun Length
10 98 ft / 30 m 6,130 ft / 1,869 m 109.30° 96.75° Asphalt 404 ft / 123 m 0 ft / 0 m
28 98 ft / 30 m 6,130 ft / 1,869 m 289.30° 276.75° Asphalt 0 ft / 0 m 295 ft / 90 m

Map

Weather


0- 5 10 15 20 25 30 35+ Temperature / ° C

Clouds and Precipitation
Forecast for 2018-05-21 06:00 UTC. Updated an hour ago

Ground ~20,000 ft ~40,000 ft Winds

METAR

NFNA 210600Z 08003KT 9999 FEW020 BKN300 26/23 Q1012

TAF

TAF NFNA 210511Z 2106/2206 09005KT 9999 BKN020

Frequencies

Recorded 128.50 MHz TRML INFO
Approach 119.70 MHz APP
Tower 119.70 MHz TWR
Warning: Do not use this data for real-world aviation or navigation. No guarantee of current accuracy is given.